sensor_id;sensor_type;location;lat;lon;timestamp;P1;durP1;ratioP1;P2;durP2;ratioP2
72201;SDS011;60105;54.956;73.412;2023-09-08T00:02:18;71.28;;;32.38;;
72201;SDS011;60105;54.956;73.412;2023-09-08T00:05:20;71.97;;;33.13;;
72201;SDS011;60105;54.956;73.412;2023-09-08T00:08:21;70.22;;;33.38;;
72201;SDS011;60105;54.956;73.412;2023-09-08T00:11:24;70.83;;;33.27;;
72201;SDS011;60105;54.956;73.412;2023-09-08T00:14:26;68.82;;;37.65;;
72201;SDS011;60105;54.956;73.412;2023-09-08T00:17:27;70.90;;;34.00;;
72201;SDS011;60105;54.956;73.412;2023-09-08T00:20:28;68.18;;;36.60;;
72201;SDS011;60105;54.956;73.412;2023-09-08T00:23:30;75.93;;;35.85;;
72201;SDS011;60105;54.956;73.412;2023-09-08T00:26:31;66.07;;;32.63;;
72201;SDS011;60105;54.956;73.412;2023-09-08T00:29:33;62.03;;;30.60;;
72201;SDS011;60105;54.956;73.412;2023-09-08T00:32:35;72.45;;;31.98;;
72201;SDS011;60105;54.956;73.412;2023-09-08T00:35:36;64.33;;;31.07;;
72201;SDS011;60105;54.956;73.412;2023-09-08T00:39:17;60.28;;;28.32;;
72201;SDS011;60105;54.956;73.412;2023-09-08T00:42:20;54.63;;;26.08;;
72201;SDS011;60105;54.956;73.412;2023-09-08T00:45:21;75.37;;;28.23;;
72201;SDS011;60105;54.956;73.412;2023-09-08T00:48:23;62.93;;;27.30;;
72201;SDS011;60105;54.956;73.412;2023-09-08T00:51:25;61.10;;;27.63;;
72201;SDS011;60105;54.956;73.412;2023-09-08T00:54:27;59.10;;;26.40;;
72201;SDS011;60105;54.956;73.412;2023-09-08T00:57:28;58.72;;;28.17;;
72201;SDS011;60105;54.956;73.412;2023-09-08T01:00:29;65.47;;;28.60;;
72201;SDS011;60105;54.956;73.412;2023-09-08T01:03:30;59.53;;;26.08;;
72201;SDS011;60105;54.956;73.412;2023-09-08T01:06:32;61.03;;;26.90;;
72201;SDS011;60105;54.956;73.412;2023-09-08T01:09:34;61.93;;;27.40;;
72201;SDS011;60105;54.956;73.412;2023-09-08T01:12:36;52.10;;;25.85;;
72201;SDS011;60105;54.956;73.412;2023-09-08T01:15:37;64.90;;;26.60;;
72201;SDS011;60105;54.956;73.412;2023-09-08T01:19:17;54.95;;;28.42;;
72201;SDS011;60105;54.956;73.412;2023-09-08T01:25:45;67.43;;;28.92;;
72201;SDS011;60105;54.956;73.412;2023-09-08T01:29:17;38.70;;;23.90;;
72201;SDS011;60105;54.956;73.412;2023-09-08T01:32:20;61.85;;;27.42;;
72201;SDS011;60105;54.956;73.412;2023-09-08T01:35:22;51.90;;;25.47;;
72201;SDS011;60105;54.956;73.412;2023-09-08T01:38:25;56.00;;;24.53;;
72201;SDS011;60105;54.956;73.412;2023-09-08T01:41:27;59.65;;;24.08;;
72201;SDS011;60105;54.956;73.412;2023-09-08T01:44:29;44.30;;;20.85;;
72201;SDS011;60105;54.956;73.412;2023-09-08T01:47:31;42.42;;;19.52;;
72201;SDS011;60105;54.956;73.412;2023-09-08T01:50:32;54.55;;;22.38;;
72201;SDS011;60105;54.956;73.412;2023-09-08T01:54:17;50.21;;;24.04;;
72201;SDS011;60105;54.956;73.412;2023-09-08T01:57:19;50.15;;;22.98;;
72201;SDS011;60105;54.956;73.412;2023-09-08T02:00:21;47.53;;;21.83;;
72201;SDS011;60105;54.956;73.412;2023-09-08T02:03:23;55.78;;;24.30;;
72201;SDS011;60105;54.956;73.412;2023-09-08T02:06:24;43.58;;;22.67;;
72201;SDS011;60105;54.956;73.412;2023-09-08T02:09:34;40.43;;;24.27;;
72201;SDS011;60105;54.956;73.412;2023-09-08T02:12:36;53.35;;;22.95;;
72201;SDS011;60105;54.956;73.412;2023-09-08T02:15:39;48.20;;;22.87;;
72201;SDS011;60105;54.956;73.412;2023-09-08T02:19:17;64.90;;;22.13;;
72201;SDS011;60105;54.956;73.412;2023-09-08T02:22:19;41.55;;;18.95;;
72201;SDS011;60105;54.956;73.412;2023-09-08T02:25:20;39.22;;;19.58;;
72201;SDS011;60105;54.956;73.412;2023-09-08T02:28:25;33.47;;;17.73;;
72201;SDS011;60105;54.956;73.412;2023-09-08T02:31:27;37.15;;;16.25;;
72201;SDS011;60105;54.956;73.412;2023-09-08T02:34:29;28.83;;;16.90;;
72201;SDS011;60105;54.956;73.412;2023-09-08T02:37:32;36.22;;;15.90;;
72201;SDS011;60105;54.956;73.412;2023-09-08T02:40:33;38.70;;;18.27;;
72201;SDS011;60105;54.956;73.412;2023-09-08T02:43:46;34.03;;;17.83;;
72201;SDS011;60105;54.956;73.412;2023-09-08T02:46:48;34.00;;;17.98;;
72201;SDS011;60105;54.956;73.412;2023-09-08T02:49:49;25.48;;;16.20;;
72201;SDS011;60105;54.956;73.412;2023-09-08T02:52:51;31.58;;;16.60;;
72201;SDS011;60105;54.956;73.412;2023-09-08T02:55:52;27.20;;;14.67;;
72201;SDS011;60105;54.956;73.412;2023-09-08T03:02:18;25.70;;;13.32;;
72201;SDS011;60105;54.956;73.412;2023-09-08T03:05:20;23.75;;;13.05;;
72201;SDS011;60105;54.956;73.412;2023-09-08T03:08:22;21.90;;;10.38;;
72201;SDS011;60105;54.956;73.412;2023-09-08T03:11:24;18.37;;;9.67;;
72201;SDS011;60105;54.956;73.412;2023-09-08T03:14:25;22.83;;;9.93;;
72201;SDS011;60105;54.956;73.412;2023-09-08T03:17:26;20.05;;;9.30;;
72201;SDS011;60105;54.956;73.412;2023-09-08T03:20:28;18.83;;;8.23;;
72201;SDS011;60105;54.956;73.412;2023-09-08T03:23:30;12.98;;;7.68;;
72201;SDS011;60105;54.956;73.412;2023-09-08T03:26:31;18.70;;;8.23;;
72201;SDS011;60105;54.956;73.412;2023-09-08T03:29:34;11.53;;;6.67;;
72201;SDS011;60105;54.956;73.412;2023-09-08T03:32:36;20.77;;;7.65;;
72201;SDS011;60105;54.956;73.412;2023-09-08T03:35:38;16.47;;;6.70;;
72201;SDS011;60105;54.956;73.412;2023-09-08T03:39:17;18.02;;;6.78;;
72201;SDS011;60105;54.956;73.412;2023-09-08T03:42:20;13.83;;;6.13;;
72201;SDS011;60105;54.956;73.412;2023-09-08T03:45:21;14.80;;;5.93;;
72201;SDS011;60105;54.956;73.412;2023-09-08T03:48:23;14.63;;;6.03;;
72201;SDS011;60105;54.956;73.412;2023-09-08T03:51:24;14.50;;;6.83;;
72201;SDS011;60105;54.956;73.412;2023-09-08T03:54:25;9.55;;;3.97;;
72201;SDS011;60105;54.956;73.412;2023-09-08T03:57:26;18.58;;;5.10;;
72201;SDS011;60105;54.956;73.412;2023-09-08T04:00:28;16.03;;;5.27;;
72201;SDS011;60105;54.956;73.412;2023-09-08T04:03:29;11.15;;;4.20;;
72201;SDS011;60105;54.956;73.412;2023-09-08T04:06:30;11.17;;;4.37;;
72201;SDS011;60105;54.956;73.412;2023-09-08T04:09:32;13.57;;;4.93;;
72201;SDS011;60105;54.956;73.412;2023-09-08T04:12:33;12.57;;;5.03;;
72201;SDS011;60105;54.956;73.412;2023-09-08T04:15:35;12.27;;;3.93;;
72201;SDS011;60105;54.956;73.412;2023-09-08T04:19:17;7.73;;;3.98;;
72201;SDS011;60105;54.956;73.412;2023-09-08T04:22:18;11.57;;;4.75;;
72201;SDS011;60105;54.956;73.412;2023-09-08T04:25:20;8.37;;;3.40;;
72201;SDS011;60105;54.956;73.412;2023-09-08T04:28:21;8.65;;;3.88;;
72201;SDS011;60105;54.956;73.412;2023-09-08T04:31:23;9.43;;;3.60;;
72201;SDS011;60105;54.956;73.412;2023-09-08T04:34:24;6.80;;;3.13;;
72201;SDS011;60105;54.956;73.412;2023-09-08T04:37:25;7.32;;;3.20;;
72201;SDS011;60105;54.956;73.412;2023-09-08T04:40:27;7.07;;;3.07;;
72201;SDS011;60105;54.956;73.412;2023-09-08T04:43:28;6.57;;;3.08;;
72201;SDS011;60105;54.956;73.412;2023-09-08T04:46:30;8.13;;;2.88;;
72201;SDS011;60105;54.956;73.412;2023-09-08T04:49:33;7.93;;;3.77;;
72201;SDS011;60105;54.956;73.412;2023-09-08T04:52:34;7.63;;;3.00;;
72201;SDS011;60105;54.956;73.412;2023-09-08T04:55:37;10.70;;;2.80;;
72201;SDS011;60105;54.956;73.412;2023-09-08T04:59:17;8.57;;;3.40;;
72201;SDS011;60105;54.956;73.412;2023-09-08T05:02:19;8.77;;;4.28;;
72201;SDS011;60105;54.956;73.412;2023-09-08T05:05:21;14.50;;;4.13;;
72201;SDS011;60105;54.956;73.412;2023-09-08T05:08:26;9.43;;;3.97;;
72201;SDS011;60105;54.956;73.412;2023-09-08T05:11:27;15.20;;;3.23;;
72201;SDS011;60105;54.956;73.412;2023-09-08T05:14:29;6.95;;;3.00;;
72201;SDS011;60105;54.956;73.412;2023-09-08T05:17:32;10.20;;;2.88;;
72201;SDS011;60105;54.956;73.412;2023-09-08T05:20:34;5.23;;;2.50;;
72201;SDS011;60105;54.956;73.412;2023-09-08T05:24:17;6.43;;;2.41;;
72201;SDS011;60105;54.956;73.412;2023-09-08T05:27:19;9.30;;;3.27;;
72201;SDS011;60105;54.956;73.412;2023-09-08T05:30:20;7.20;;;3.83;;
72201;SDS011;60105;54.956;73.412;2023-09-08T05:33:21;6.80;;;2.85;;
72201;SDS011;60105;54.956;73.412;2023-09-08T05:36:23;10.37;;;3.00;;
72201;SDS011;60105;54.956;73.412;2023-09-08T05:39:26;8.43;;;2.90;;
72201;SDS011;60105;54.956;73.412;2023-09-08T05:42:27;7.80;;;2.93;;
72201;SDS011;60105;54.956;73.412;2023-09-08T05:45:31;9.93;;;3.30;;
72201;SDS011;60105;54.956;73.412;2023-09-08T05:49:17;10.46;;;2.90;;
72201;SDS011;60105;54.956;73.412;2023-09-08T05:52:19;8.35;;;3.55;;
72201;SDS011;60105;54.956;73.412;2023-09-08T05:55:21;12.35;;;4.20;;
72201;SDS011;60105;54.956;73.412;2023-09-08T05:58:24;12.77;;;4.07;;
72201;SDS011;60105;54.956;73.412;2023-09-08T06:01:28;19.57;;;4.37;;
72201;SDS011;60105;54.956;73.412;2023-09-08T06:04:31;10.40;;;3.23;;
72201;SDS011;60105;54.956;73.412;2023-09-08T06:07:34;5.45;;;3.05;;
72201;SDS011;60105;54.956;73.412;2023-09-08T06:10:35;7.63;;;3.53;;
72201;SDS011;60105;54.956;73.412;2023-09-08T06:13:46;8.53;;;2.83;;
72201;SDS011;60105;54.956;73.412;2023-09-08T06:16:49;10.75;;;3.67;;
72201;SDS011;60105;54.956;73.412;2023-09-08T06:19:52;8.67;;;3.30;;
72201;SDS011;60105;54.956;73.412;2023-09-08T06:22:53;9.93;;;3.22;;
72201;SDS011;60105;54.956;73.412;2023-09-08T06:25:57;10.70;;;2.90;;
72201;SDS011;60105;54.956;73.412;2023-09-08T06:32:18;6.97;;;2.45;;
72201;SDS011;60105;54.956;73.412;2023-09-08T06:35:22;11.40;;;2.97;;
72201;SDS011;60105;54.956;73.412;2023-09-08T06:38:23;11.23;;;3.03;;
72201;SDS011;60105;54.956;73.412;2023-09-08T06:41:26;12.35;;;3.95;;
72201;SDS011;60105;54.956;73.412;2023-09-08T06:44:29;15.83;;;3.10;;
72201;SDS011;60105;54.956;73.412;2023-09-08T06:47:32;14.30;;;3.72;;
72201;SDS011;60105;54.956;73.412;2023-09-08T06:50:33;8.50;;;3.28;;
72201;SDS011;60105;54.956;73.412;2023-09-08T06:54:17;11.77;;;3.38;;
72201;SDS011;60105;54.956;73.412;2023-09-08T06:57:21;8.63;;;3.23;;
72201;SDS011;60105;54.956;73.412;2023-09-08T07:00:22;14.95;;;5.20;;
72201;SDS011;60105;54.956;73.412;2023-09-08T07:03:24;10.13;;;4.63;;
72201;SDS011;60105;54.956;73.412;2023-09-08T07:06:27;8.75;;;3.33;;
72201;SDS011;60105;54.956;73.412;2023-09-08T07:09:30;13.67;;;3.13;;
72201;SDS011;60105;54.956;73.412;2023-09-08T07:12:31;12.82;;;4.05;;
72201;SDS011;60105;54.956;73.412;2023-09-08T07:15:33;15.73;;;3.70;;
72201;SDS011;60105;54.956;73.412;2023-09-08T07:19:17;15.16;;;3.86;;
72201;SDS011;60105;54.956;73.412;2023-09-08T07:22:19;19.77;;;4.40;;
72201;SDS011;60105;54.956;73.412;2023-09-08T07:25:20;10.98;;;3.60;;
72201;SDS011;60105;54.956;73.412;2023-09-08T07:28:22;18.38;;;5.53;;
72201;SDS011;60105;54.956;73.412;2023-09-08T07:31:24;14.03;;;4.33;;
72201;SDS011;60105;54.956;73.412;2023-09-08T07:34:26;12.25;;;4.60;;
72201;SDS011;60105;54.956;73.412;2023-09-08T07:37:27;11.15;;;3.72;;
72201;SDS011;60105;54.956;73.412;2023-09-08T07:40:29;12.17;;;4.00;;
72201;SDS011;60105;54.956;73.412;2023-09-08T07:43:32;17.08;;;4.70;;
72201;SDS011;60105;54.956;73.412;2023-09-08T07:46:33;10.25;;;3.40;;
72201;SDS011;60105;54.956;73.412;2023-09-08T07:49:35;17.13;;;4.15;;
72201;SDS011;60105;54.956;73.412;2023-09-08T07:52:36;13.50;;;3.50;;
72201;SDS011;60105;54.956;73.412;2023-09-08T07:55:38;19.60;;;4.60;;
72201;SDS011;60105;54.956;73.412;2023-09-08T07:59:17;14.00;;;4.05;;
72201;SDS011;60105;54.956;73.412;2023-09-08T08:02:18;14.30;;;4.65;;
72201;SDS011;60105;54.956;73.412;2023-09-08T08:05:20;13.25;;;3.80;;
72201;SDS011;60105;54.956;73.412;2023-09-08T08:08:21;13.90;;;4.57;;
72201;SDS011;60105;54.956;73.412;2023-09-08T08:11:22;17.98;;;4.40;;
72201;SDS011;60105;54.956;73.412;2023-09-08T08:14:24;15.63;;;4.70;;
72201;SDS011;60105;54.956;73.412;2023-09-08T08:17:25;22.10;;;5.07;;
72201;SDS011;60105;54.956;73.412;2023-09-08T08:20:28;15.32;;;5.65;;
72201;SDS011;60105;54.956;73.412;2023-09-08T08:23:30;15.88;;;4.88;;
72201;SDS011;60105;54.956;73.412;2023-09-08T08:26:31;25.52;;;5.50;;
72201;SDS011;60105;54.956;73.412;2023-09-08T08:29:33;22.37;;;5.20;;
72201;SDS011;60105;54.956;73.412;2023-09-08T08:32:35;15.75;;;4.85;;
72201;SDS011;60105;54.956;73.412;2023-09-08T08:35:36;29.20;;;5.40;;
72201;SDS011;60105;54.956;73.412;2023-09-08T08:39:17;21.18;;;5.28;;
72201;SDS011;60105;54.956;73.412;2023-09-08T08:42:18;21.67;;;6.17;;
72201;SDS011;60105;54.956;73.412;2023-09-08T08:45:24;11.83;;;5.20;;
72201;SDS011;60105;54.956;73.412;2023-09-08T08:49:17;13.88;;;4.47;;
72201;SDS011;60105;54.956;73.412;2023-09-08T08:52:19;13.32;;;4.82;;
72201;SDS011;60105;54.956;73.412;2023-09-08T08:55:21;18.93;;;5.07;;
72201;SDS011;60105;54.956;73.412;2023-09-08T08:58:25;19.80;;;5.97;;
72201;SDS011;60105;54.956;73.412;2023-09-08T09:01:27;20.83;;;6.40;;
72201;SDS011;60105;54.956;73.412;2023-09-08T09:04:29;15.07;;;5.50;;
72201;SDS011;60105;54.956;73.412;2023-09-08T09:07:34;22.85;;;5.60;;
72201;SDS011;60105;54.956;73.412;2023-09-08T09:10:35;20.90;;;4.43;;
72201;SDS011;60105;54.956;73.412;2023-09-08T09:13:46;17.48;;;4.42;;
72201;SDS011;60105;54.956;73.412;2023-09-08T09:16:47;16.40;;;4.75;;
72201;SDS011;60105;54.956;73.412;2023-09-08T09:23:31;19.67;;;5.72;;
72201;SDS011;60105;54.956;73.412;2023-09-08T09:26:34;11.80;;;4.82;;
72201;SDS011;60105;54.956;73.412;2023-09-08T09:29:46;11.53;;;5.13;;
72201;SDS011;60105;54.956;73.412;2023-09-08T09:32:59;16.00;;;4.83;;
72201;SDS011;60105;54.956;73.412;2023-09-08T09:36:04;15.07;;;5.80;;
72201;SDS011;60105;54.956;73.412;2023-09-08T09:42:19;12.93;;;5.22;;
72201;SDS011;60105;54.956;73.412;2023-09-08T09:45:24;16.27;;;4.55;;
72201;SDS011;60105;54.956;73.412;2023-09-08T09:48:26;20.25;;;5.25;;
72201;SDS011;60105;54.956;73.412;2023-09-08T09:51:28;24.50;;;5.90;;
72201;SDS011;60105;54.956;73.412;2023-09-08T09:54:30;29.35;;;6.10;;
72201;SDS011;60105;54.956;73.412;2023-09-08T09:57:31;16.83;;;5.37;;
72201;SDS011;60105;54.956;73.412;2023-09-08T10:00:34;23.47;;;6.17;;
72201;SDS011;60105;54.956;73.412;2023-09-08T10:04:17;21.74;;;6.32;;
72201;SDS011;60105;54.956;73.412;2023-09-08T10:07:19;22.13;;;5.72;;
72201;SDS011;60105;54.956;73.412;2023-09-08T10:10:21;27.10;;;7.78;;
72201;SDS011;60105;54.956;73.412;2023-09-08T10:13:26;31.37;;;5.97;;
72201;SDS011;60105;54.956;73.412;2023-09-08T10:16:31;23.70;;;4.83;;
72201;SDS011;60105;54.956;73.412;2023-09-08T10:19:35;25.33;;;5.13;;
72201;SDS011;60105;54.956;73.412;2023-09-08T10:22:42;18.95;;;4.88;;
72201;SDS011;60105;54.956;73.412;2023-09-08T10:25:44;21.00;;;4.50;;
72201;SDS011;60105;54.956;73.412;2023-09-08T10:32:19;21.07;;;5.03;;
72201;SDS011;60105;54.956;73.412;2023-09-08T10:35:22;23.83;;;5.18;;
72201;SDS011;60105;54.956;73.412;2023-09-08T10:38:28;22.05;;;5.60;;
72201;SDS011;60105;54.956;73.412;2023-09-08T10:41:30;16.83;;;4.88;;
72201;SDS011;60105;54.956;73.412;2023-09-08T10:44:33;29.10;;;6.67;;
72201;SDS011;60105;54.956;73.412;2023-09-08T10:47:41;32.72;;;7.32;;
72201;SDS011;60105;54.956;73.412;2023-09-08T10:50:57;24.23;;;6.90;;
72201;SDS011;60105;54.956;73.412;2023-09-08T10:54:40;12.95;;;5.70;;
72201;SDS011;60105;54.956;73.412;2023-09-08T10:57:44;20.25;;;4.90;;
72201;SDS011;60105;54.956;73.412;2023-09-08T11:00:46;22.33;;;6.67;;
72201;SDS011;60105;54.956;73.412;2023-09-08T11:07:19;20.67;;;4.80;;
72201;SDS011;60105;54.956;73.412;2023-09-08T11:10:20;22.73;;;5.63;;
72201;SDS011;60105;54.956;73.412;2023-09-08T11:13:22;18.92;;;5.40;;
72201;SDS011;60105;54.956;73.412;2023-09-08T11:16:23;22.43;;;5.67;;
72201;SDS011;60105;54.956;73.412;2023-09-08T11:19:43;15.52;;;5.30;;
72201;SDS011;60105;54.956;73.412;2023-09-08T11:22:48;15.80;;;5.40;;
72201;SDS011;60105;54.956;73.412;2023-09-08T11:25:50;19.43;;;4.77;;
72201;SDS011;60105;54.956;73.412;2023-09-08T11:29:17;13.10;;;3.50;;
72201;SDS011;60105;54.956;73.412;2023-09-08T11:32:19;18.85;;;5.22;;
72201;SDS011;60105;54.956;73.412;2023-09-08T11:35:21;25.10;;;5.93;;
72201;SDS011;60105;54.956;73.412;2023-09-08T11:38:26;20.02;;;5.15;;
72201;SDS011;60105;54.956;73.412;2023-09-08T11:41:28;13.82;;;3.75;;
72201;SDS011;60105;54.956;73.412;2023-09-08T11:44:29;21.88;;;5.57;;
72201;SDS011;60105;54.956;73.412;2023-09-08T11:47:31;14.38;;;4.97;;
72201;SDS011;60105;54.956;73.412;2023-09-08T11:50:33;11.93;;;4.10;;
72201;SDS011;60105;54.956;73.412;2023-09-08T11:54:17;7.64;;;2.59;;
72201;SDS011;60105;54.956;73.412;2023-09-08T11:57:19;8.68;;;3.08;;
72201;SDS011;60105;54.956;73.412;2023-09-08T12:00:20;7.67;;;2.63;;
72201;SDS011;60105;54.956;73.412;2023-09-08T12:03:24;12.63;;;2.65;;
72201;SDS011;60105;54.956;73.412;2023-09-08T12:06:25;18.02;;;4.72;;
72201;SDS011;60105;54.956;73.412;2023-09-08T12:09:28;28.23;;;6.50;;
72201;SDS011;60105;54.956;73.412;2023-09-08T12:12:29;32.27;;;6.50;;
72201;SDS011;60105;54.956;73.412;2023-09-08T12:19:29;27.60;;;5.98;;
72201;SDS011;60105;54.956;73.412;2023-09-08T12:22:32;23.90;;;6.47;;
72201;SDS011;60105;54.956;73.412;2023-09-08T12:25:33;25.23;;;5.07;;
72201;SDS011;60105;54.956;73.412;2023-09-08T12:29:17;16.83;;;6.45;;
72201;SDS011;60105;54.956;73.412;2023-09-08T12:32:19;24.02;;;6.65;;
72201;SDS011;60105;54.956;73.412;2023-09-08T12:35:21;18.58;;;4.25;;
72201;SDS011;60105;54.956;73.412;2023-09-08T12:38:30;24.55;;;5.03;;
72201;SDS011;60105;54.956;73.412;2023-09-08T12:41:32;26.53;;;4.90;;
72201;SDS011;60105;54.956;73.412;2023-09-08T12:44:34;15.70;;;4.00;;
72201;SDS011;60105;54.956;73.412;2023-09-08T12:47:35;19.90;;;4.40;;
72201;SDS011;60105;54.956;73.412;2023-09-08T12:50:36;12.73;;;3.47;;
72201;SDS011;60105;54.956;73.412;2023-09-08T12:54:17;11.45;;;3.65;;
72201;SDS011;60105;54.956;73.412;2023-09-08T12:57:18;10.00;;;3.35;;
72201;SDS011;60105;54.956;73.412;2023-09-08T13:00:20;17.33;;;4.35;;
72201;SDS011;60105;54.956;73.412;2023-09-08T13:03:24;11.30;;;3.93;;
72201;SDS011;60105;54.956;73.412;2023-09-08T13:06:25;16.17;;;4.57;;
72201;SDS011;60105;54.956;73.412;2023-09-08T13:09:26;8.40;;;3.53;;
72201;SDS011;60105;54.956;73.412;2023-09-08T13:12:27;13.85;;;4.32;;
72201;SDS011;60105;54.956;73.412;2023-09-08T13:15:29;12.43;;;5.07;;
72201;SDS011;60105;54.956;73.412;2023-09-08T13:18:30;11.50;;;4.47;;
72201;SDS011;60105;54.956;73.412;2023-09-08T13:21:36;17.30;;;5.03;;
72201;SDS011;60105;54.956;73.412;2023-09-08T13:24:37;10.60;;;4.95;;
72201;SDS011;60105;54.956;73.412;2023-09-08T13:27:42;20.40;;;5.67;;
72201;SDS011;60105;54.956;73.412;2023-09-08T13:30:43;22.75;;;6.70;;
72201;SDS011;60105;54.956;73.412;2023-09-08T13:34:17;25.85;;;7.15;;
72201;SDS011;60105;54.956;73.412;2023-09-08T13:37:19;21.38;;;7.55;;
72201;SDS011;60105;54.956;73.412;2023-09-08T13:40:20;20.67;;;7.00;;
72201;SDS011;60105;54.956;73.412;2023-09-08T13:43:22;20.77;;;8.85;;
72201;SDS011;60105;54.956;73.412;2023-09-08T13:46:23;21.23;;;7.47;;
72201;SDS011;60105;54.956;73.412;2023-09-08T13:49:25;17.20;;;7.63;;
72201;SDS011;60105;54.956;73.412;2023-09-08T13:52:27;23.97;;;7.93;;
72201;SDS011;60105;54.956;73.412;2023-09-08T13:55:28;28.80;;;9.40;;
72201;SDS011;60105;54.956;73.412;2023-09-08T13:58:30;23.63;;;8.33;;
72201;SDS011;60105;54.956;73.412;2023-09-08T14:01:35;22.70;;;10.43;;
72201;SDS011;60105;54.956;73.412;2023-09-08T14:04:37;26.70;;;9.13;;
72201;SDS011;60105;54.956;73.412;2023-09-08T14:07:40;23.53;;;9.10;;
72201;SDS011;60105;54.956;73.412;2023-09-08T14:10:42;26.30;;;9.88;;
72201;SDS011;60105;54.956;73.412;2023-09-08T14:13:45;28.50;;;10.07;;
72201;SDS011;60105;54.956;73.412;2023-09-08T14:16:47;39.55;;;10.70;;
72201;SDS011;60105;54.956;73.412;2023-09-08T14:19:48;32.73;;;11.27;;
72201;SDS011;60105;54.956;73.412;2023-09-08T14:22:50;26.75;;;9.98;;
72201;SDS011;60105;54.956;73.412;2023-09-08T14:25:51;34.43;;;10.30;;
72201;SDS011;60105;54.956;73.412;2023-09-08T14:32:18;25.67;;;8.65;;
72201;SDS011;60105;54.956;73.412;2023-09-08T14:35:19;21.17;;;8.87;;
72201;SDS011;60105;54.956;73.412;2023-09-08T14:38:21;22.63;;;8.63;;
72201;SDS011;60105;54.956;73.412;2023-09-08T14:41:23;16.40;;;7.82;;
72201;SDS011;60105;54.956;73.412;2023-09-08T14:44:24;17.27;;;7.57;;
72201;SDS011;60105;54.956;73.412;2023-09-08T14:47:25;20.30;;;7.03;;
72201;SDS011;60105;54.956;73.412;2023-09-08T14:50:26;13.50;;;7.23;;
72201;SDS011;60105;54.956;73.412;2023-09-08T14:53:28;17.02;;;6.70;;
72201;SDS011;60105;54.956;73.412;2023-09-08T14:56:29;16.73;;;7.38;;
72201;SDS011;60105;54.956;73.412;2023-09-08T14:59:30;17.87;;;5.73;;
72201;SDS011;60105;54.956;73.412;2023-09-08T15:02:32;12.10;;;5.93;;
72201;SDS011;60105;54.956;73.412;2023-09-08T15:05:34;14.47;;;6.63;;
72201;SDS011;60105;54.956;73.412;2023-09-08T15:09:17;12.43;;;6.85;;
72201;SDS011;60105;54.956;73.412;2023-09-08T15:12:18;13.10;;;6.57;;
72201;SDS011;60105;54.956;73.412;2023-09-08T15:15:20;14.43;;;6.60;;
72201;SDS011;60105;54.956;73.412;2023-09-08T15:18:25;16.10;;;7.15;;
72201;SDS011;60105;54.956;73.412;2023-09-08T15:21:29;15.80;;;7.10;;
72201;SDS011;60105;54.956;73.412;2023-09-08T15:24:33;16.45;;;8.00;;
72201;SDS011;60105;54.956;73.412;2023-09-08T15:27:34;17.52;;;7.90;;
72201;SDS011;60105;54.956;73.412;2023-09-08T15:30:35;16.43;;;7.90;;
72201;SDS011;60105;54.956;73.412;2023-09-08T15:34:17;20.26;;;8.02;;
72201;SDS011;60105;54.956;73.412;2023-09-08T15:37:18;16.17;;;8.75;;
72201;SDS011;60105;54.956;73.412;2023-09-08T15:40:20;17.00;;;7.70;;
72201;SDS011;60105;54.956;73.412;2023-09-08T15:43:21;21.10;;;9.35;;
72201;SDS011;60105;54.956;73.412;2023-09-08T15:46:23;21.17;;;9.53;;
72201;SDS011;60105;54.956;73.412;2023-09-08T15:49:25;20.75;;;10.15;;
72201;SDS011;60105;54.956;73.412;2023-09-08T15:52:26;25.38;;;10.30;;
72201;SDS011;60105;54.956;73.412;2023-09-08T15:55:28;21.07;;;10.17;;
72201;SDS011;60105;54.956;73.412;2023-09-08T15:58:29;16.02;;;9.25;;
72201;SDS011;60105;54.956;73.412;2023-09-08T16:01:30;18.90;;;10.20;;
72201;SDS011;60105;54.956;73.412;2023-09-08T16:04:32;18.35;;;9.63;;
72201;SDS011;60105;54.956;73.412;2023-09-08T16:07:33;20.13;;;9.47;;
72201;SDS011;60105;54.956;73.412;2023-09-08T16:10:34;16.15;;;9.48;;
72201;SDS011;60105;54.956;73.412;2023-09-08T16:13:45;20.45;;;9.50;;
72201;SDS011;60105;54.956;73.412;2023-09-08T16:16:47;20.60;;;8.07;;
72201;SDS011;60105;54.956;73.412;2023-09-08T16:19:50;20.83;;;8.47;;
72201;SDS011;60105;54.956;73.412;2023-09-08T16:22:52;20.98;;;8.65;;
72201;SDS011;60105;54.956;73.412;2023-09-08T16:25:53;18.23;;;8.53;;
72201;SDS011;60105;54.956;73.412;2023-09-08T16:32:18;17.80;;;9.00;;
72201;SDS011;60105;54.956;73.412;2023-09-08T16:35:21;15.23;;;7.95;;
72201;SDS011;60105;54.956;73.412;2023-09-08T16:38:22;17.37;;;8.37;;
72201;SDS011;60105;54.956;73.412;2023-09-08T16:41:23;20.00;;;9.15;;
72201;SDS011;60105;54.956;73.412;2023-09-08T16:44:25;16.90;;;8.27;;
72201;SDS011;60105;54.956;73.412;2023-09-08T16:47:28;18.15;;;8.65;;
72201;SDS011;60105;54.956;73.412;2023-09-08T16:50:29;17.07;;;8.30;;
72201;SDS011;60105;54.956;73.412;2023-09-08T16:53:31;17.20;;;8.13;;
72201;SDS011;60105;54.956;73.412;2023-09-08T16:56:32;18.58;;;9.30;;
72201;SDS011;60105;54.956;73.412;2023-09-08T16:59:33;18.73;;;9.23;;
72201;SDS011;60105;54.956;73.412;2023-09-08T17:02:35;17.10;;;9.20;;
72201;SDS011;60105;54.956;73.412;2023-09-08T17:05:37;15.05;;;8.45;;
72201;SDS011;60105;54.956;73.412;2023-09-08T17:09:17;18.88;;;8.27;;
72201;SDS011;60105;54.956;73.412;2023-09-08T17:12:18;17.37;;;8.00;;
72201;SDS011;60105;54.956;73.412;2023-09-08T17:15:20;17.33;;;8.27;;
72201;SDS011;60105;54.956;73.412;2023-09-08T17:18:21;13.82;;;7.40;;
72201;SDS011;60105;54.956;73.412;2023-09-08T17:21:24;15.80;;;7.90;;
72201;SDS011;60105;54.956;73.412;2023-09-08T17:24:25;13.37;;;5.83;;
72201;SDS011;60105;54.956;73.412;2023-09-08T17:27:28;15.88;;;7.97;;
72201;SDS011;60105;54.956;73.412;2023-09-08T17:30:29;18.67;;;8.03;;
72201;SDS011;60105;54.956;73.412;2023-09-08T17:33:31;16.85;;;8.38;;
72201;SDS011;60105;54.956;73.412;2023-09-08T17:36:33;14.93;;;7.63;;
72201;SDS011;60105;54.956;73.412;2023-09-08T17:39:34;16.50;;;8.40;;
72201;SDS011;60105;54.956;73.412;2023-09-08T17:42:36;17.85;;;6.88;;
72201;SDS011;60105;54.956;73.412;2023-09-08T17:45:37;14.83;;;7.73;;
72201;SDS011;60105;54.956;73.412;2023-09-08T17:49:17;14.23;;;7.35;;
72201;SDS011;60105;54.956;73.412;2023-09-08T17:52:18;14.77;;;7.47;;
72201;SDS011;60105;54.956;73.412;2023-09-08T17:55:20;15.53;;;8.03;;
72201;SDS011;60105;54.956;73.412;2023-09-08T17:58:22;16.38;;;7.72;;
72201;SDS011;60105;54.956;73.412;2023-09-08T18:01:23;13.93;;;6.67;;
72201;SDS011;60105;54.956;73.412;2023-09-08T18:04:25;9.50;;;6.40;;
72201;SDS011;60105;54.956;73.412;2023-09-08T18:07:26;14.82;;;6.43;;
72201;SDS011;60105;54.956;73.412;2023-09-08T18:10:28;10.48;;;5.70;;
72201;SDS011;60105;54.956;73.412;2023-09-08T18:13:30;9.17;;;4.97;;
72201;SDS011;60105;54.956;73.412;2023-09-08T18:16:31;12.35;;;5.50;;
72201;SDS011;60105;54.956;73.412;2023-09-08T18:19:32;11.03;;;5.50;;
72201;SDS011;60105;54.956;73.412;2023-09-08T18:22:36;9.63;;;4.78;;
72201;SDS011;60105;54.956;73.412;2023-09-08T18:25:38;8.50;;;4.85;;
72201;SDS011;60105;54.956;73.412;2023-09-08T18:29:17;9.25;;;4.97;;
72201;SDS011;60105;54.956;73.412;2023-09-08T18:32:18;8.27;;;5.20;;
72201;SDS011;60105;54.956;73.412;2023-09-08T18:35:20;8.33;;;3.87;;
72201;SDS011;60105;54.956;73.412;2023-09-08T18:38:21;10.88;;;4.40;;